ENML

Molde Airport

Årø, Norway
METAR ENML 191320Z 06007KT 9999 VCFG FEW001 02/02 Q1038
Observed Flight Rules
Nov-19 @ 13:20 UTC (22 minutes ago) Visual Flight Rules
Wind Visibility Clouds Conditions
60° at 7 knots 10,000+ meters
  • Few at 100' AGL
  • Area Fog
Temperatures Readings
Current 2°C / 36°F
Dewpoint 2°C / 36°F
Humidity 100%
Altimeter 30.65" Hg
Pressure 1038 hPa
Elevation 3
METAR ENML 191320Z 06007KT 9999 VCFG FEW001 02/02 Q1038
Observed Flight Rules
Nov-19 @ 13:20 UTC
(22 minutes ago)
VFR
Wind Visibility
60° at 7 knots 10,000+ meters
Clouds
  • Few at 100' AGL
Conditions
  • Area Fog
Temperature Dewpoint
2°C / 36°F 2°C / 36°F
Humidity Altimeter Pressure
100% 30.65" Hg 1038 hPa